createdAt,value
2018-12-23T00:02:16.631Z,0.60
2018-12-23T00:04:44.614Z,0.83
2018-12-23T00:07:12.581Z,0.70
2018-12-23T00:09:40.797Z,1.30
2018-12-23T00:12:09.071Z,0.90
2018-12-23T00:14:37.253Z,0.80
2018-12-23T00:17:05.431Z,0.70
2018-12-23T00:19:33.655Z,1.00
2018-12-23T00:22:01.888Z,0.70
2018-12-23T00:24:30.194Z,0.77
2018-12-23T00:26:58.411Z,1.17
2018-12-23T00:29:26.578Z,0.80
2018-12-23T00:31:54.789Z,1.07
2018-12-23T00:34:23.022Z,0.77
2018-12-23T00:36:51.242Z,0.90
2018-12-23T00:39:20.267Z,0.57
2018-12-23T00:41:48.439Z,0.70
2018-12-23T00:44:16.723Z,0.63
2018-12-23T00:46:44.930Z,0.80
2018-12-23T00:49:13.192Z,0.70
2018-12-23T00:51:41.400Z,0.67
2018-12-23T00:54:09.623Z,0.80
2018-12-23T00:56:37.907Z,0.90
2018-12-23T00:59:06.133Z,0.83
2018-12-23T01:01:34.051Z,0.80
2018-12-23T01:04:02.060Z,0.80
2018-12-23T01:06:30.031Z,1.00
2018-12-23T01:08:58.220Z,0.70
2018-12-23T01:11:26.524Z,0.80
2018-12-23T01:13:54.711Z,0.60
2018-12-23T01:16:23.195Z,0.90
2018-12-23T01:18:51.401Z,0.87
2018-12-23T01:23:54.234Z,0.80
2018-12-23T01:26:22.499Z,0.60
2018-12-23T01:28:50.725Z,1.23
2018-12-23T01:31:18.898Z,0.93
2018-12-23T01:33:47.082Z,0.60
2018-12-23T01:36:15.283Z,0.80
2018-12-23T01:38:43.496Z,0.87
2018-12-23T01:41:11.664Z,1.00
2018-12-23T01:43:39.843Z,0.77
2018-12-23T01:46:08.021Z,0.97
2018-12-23T01:48:36.281Z,1.17
2018-12-23T01:51:04.484Z,0.93
2018-12-23T01:53:32.708Z,1.10
2018-12-23T01:56:00.923Z,1.00
2018-12-23T01:58:29.195Z,1.03
2018-12-23T02:00:57.360Z,0.90
2018-12-23T02:03:25.603Z,1.80
2018-12-23T02:05:53.835Z,1.53
2018-12-23T02:08:22.039Z,0.90
2018-12-23T02:10:50.375Z,1.70
2018-12-23T02:13:18.411Z,0.93
2018-12-23T02:15:46.598Z,1.00
2018-12-23T02:18:14.779Z,1.40
2018-12-23T02:20:43.039Z,1.10
2018-12-23T02:23:11.219Z,0.90
2018-12-23T02:25:39.411Z,1.20
2018-12-23T02:28:07.604Z,0.97
2018-12-23T02:30:35.839Z,0.87
2018-12-23T02:33:04.063Z,0.90
2018-12-23T02:35:32.246Z,1.03
2018-12-23T02:38:00.422Z,1.50
2018-12-23T02:40:28.625Z,1.07
2018-12-23T02:42:56.801Z,1.13
2018-12-23T02:45:24.970Z,1.43
2018-12-23T02:47:53.136Z,1.27
2018-12-23T02:50:21.381Z,1.37
2018-12-23T02:52:49.561Z,0.90
2018-12-23T02:55:17.846Z,1.80
2018-12-23T02:57:46.170Z,1.20
2018-12-23T03:00:14.418Z,1.63
2018-12-23T03:02:42.693Z,1.57
2018-12-23T03:05:10.876Z,1.10
2018-12-23T03:07:39.183Z,1.37
2018-12-23T03:10:07.624Z,1.30
2018-12-23T03:12:35.588Z,1.40
2018-12-23T03:15:03.998Z,1.60
2018-12-23T03:17:32.439Z,2.40
2018-12-23T03:20:00.658Z,1.30
2018-12-23T03:22:28.828Z,1.53
2018-12-23T03:24:57.012Z,1.83
2018-12-23T03:27:25.298Z,1.87
2018-12-23T03:29:53.612Z,2.10
2018-12-23T03:32:21.796Z,1.80
2018-12-23T03:34:50.051Z,1.33
2018-12-23T03:37:18.264Z,1.70
2018-12-23T03:39:46.526Z,1.50
2018-12-23T03:42:14.766Z,1.60
2018-12-23T03:44:42.954Z,1.40
2018-12-23T03:47:11.149Z,1.33
2018-12-23T03:49:39.342Z,1.50
2018-12-23T03:52:07.511Z,1.40
2018-12-23T03:54:35.922Z,1.00
2018-12-23T03:57:04.079Z,1.20
2018-12-23T03:59:32.294Z,1.30
2018-12-23T04:02:00.446Z,1.10
2018-12-23T04:04:28.661Z,1.60
2018-12-23T04:06:56.964Z,1.83
2018-12-23T04:09:25.147Z,2.23
2018-12-23T04:11:53.082Z,1.20
2018-12-23T04:14:21.022Z,2.27
2018-12-23T04:16:49.245Z,1.93
2018-12-23T04:19:17.507Z,1.60
2018-12-23T04:21:45.689Z,1.70
2018-12-23T04:24:14.019Z,1.77
2018-12-23T04:26:42.239Z,1.57
2018-12-23T04:29:10.453Z,1.43
2018-12-23T04:31:38.624Z,1.50
2018-12-23T04:34:06.853Z,1.23
2018-12-23T04:36:35.063Z,1.30
2018-12-23T04:39:04.619Z,3.83
2018-12-23T04:41:32.808Z,1.50
2018-12-23T04:44:00.993Z,1.60
2018-12-23T04:46:29.187Z,1.57
2018-12-23T04:48:57.447Z,2.80
2018-12-23T04:51:25.641Z,1.60
2018-12-23T04:53:53.823Z,1.60
2018-12-23T04:56:22.069Z,1.83
2018-12-23T04:58:50.242Z,1.77
2018-12-23T05:01:18.430Z,1.20
2018-12-23T05:03:46.734Z,1.60
2018-12-23T05:06:14.911Z,1.70
2018-12-23T05:08:43.111Z,1.70
2018-12-23T05:11:11.434Z,2.10
2018-12-23T05:13:39.447Z,2.10
2018-12-23T05:16:07.677Z,1.80
2018-12-23T05:18:35.855Z,1.80
2018-12-23T05:21:04.132Z,2.43
2018-12-23T05:23:32.106Z,1.90
2018-12-23T05:26:00.280Z,1.80
2018-12-23T05:28:28.470Z,2.03
2018-12-23T05:30:56.741Z,1.40
2018-12-23T05:33:24.935Z,2.20
2018-12-23T05:35:54.200Z,2.67
2018-12-23T05:38:22.504Z,2.10
2018-12-23T05:40:51.511Z,2.50
2018-12-23T05:43:19.930Z,1.60
2018-12-23T05:45:48.148Z,1.60
2018-12-23T05:48:16.390Z,2.50
2018-12-23T05:50:44.562Z,1.90
2018-12-23T05:53:12.795Z,1.80
2018-12-23T05:55:40.055Z,1.97
2018-12-23T05:58:08.403Z,2.60
2018-12-23T06:00:36.635Z,2.50
2018-12-23T06:03:04.809Z,2.00
2018-12-23T06:05:33.134Z,1.83
2018-12-23T06:08:01.394Z,2.10
2018-12-23T06:10:29.623Z,1.77
2018-12-23T06:12:57.811Z,1.50
2018-12-23T06:15:25.793Z,1.90
2018-12-23T06:17:54.061Z,2.10
2018-12-23T06:20:22.232Z,2.00
2018-12-23T06:22:50.538Z,1.63
2018-12-23T06:25:18.807Z,2.30
2018-12-23T06:27:46.983Z,1.80
2018-12-23T06:30:15.280Z,1.83
2018-12-23T06:32:43.489Z,1.87
2018-12-23T06:35:11.639Z,1.40
2018-12-23T06:37:39.860Z,1.43
2018-12-23T06:40:08.119Z,1.37
2018-12-23T06:42:36.339Z,1.50
2018-12-23T06:45:04.991Z,1.27
2018-12-23T06:47:33.185Z,1.33
2018-12-23T06:50:01.408Z,1.80
2018-12-23T06:52:29.596Z,1.83
2018-12-23T06:54:57.823Z,1.90
2018-12-23T06:57:26.128Z,3.13
2018-12-23T06:59:54.353Z,2.40
2018-12-23T07:02:22.633Z,2.60
2018-12-23T07:04:50.836Z,1.60
2018-12-23T07:07:19.121Z,1.70
2018-12-23T07:09:47.344Z,1.43
2018-12-23T07:12:15.558Z,1.80
2018-12-23T07:14:43.675Z,1.80
2018-12-23T07:17:11.927Z,2.20
2018-12-23T07:19:40.103Z,2.00
2018-12-23T07:22:08.374Z,2.00
2018-12-23T07:24:36.538Z,1.50
2018-12-23T07:27:04.723Z,1.73
2018-12-23T07:29:32.915Z,1.90
2018-12-23T07:32:01.308Z,1.93
2018-12-23T07:34:29.520Z,2.10
2018-12-23T07:36:57.707Z,2.80
2018-12-23T07:39:25.964Z,3.30
2018-12-23T07:41:54.340Z,2.90
2018-12-23T07:44:22.526Z,2.17
2018-12-23T07:46:50.764Z,2.07
2018-12-23T07:49:18.716Z,2.63
2018-12-23T07:51:46.950Z,2.00
2018-12-23T07:54:15.194Z,2.03
2018-12-23T07:56:43.381Z,3.53
2018-12-23T07:59:11.554Z,1.93
2018-12-23T08:01:39.812Z,1.80
2018-12-23T08:04:08.025Z,1.90
2018-12-23T08:06:36.208Z,1.80
2018-12-23T08:09:05.802Z,3.47
2018-12-23T08:11:34.035Z,1.97
2018-12-23T08:14:02.221Z,1.73
2018-12-23T08:16:30.224Z,1.50
2018-12-23T08:18:58.444Z,2.10
2018-12-23T08:21:26.720Z,1.93
2018-12-23T08:23:54.895Z,1.47
2018-12-23T08:26:23.075Z,1.97
2018-12-23T08:28:51.022Z,2.10
2018-12-23T08:31:19.205Z,1.63
2018-12-23T08:33:47.430Z,2.17
2018-12-23T08:36:15.692Z,2.83
2018-12-23T08:38:43.944Z,3.00
2018-12-23T08:41:12.239Z,3.77
2018-12-23T08:43:40.191Z,2.00
2018-12-23T08:46:08.498Z,2.57
2018-12-23T08:48:36.900Z,2.00
2018-12-23T08:51:05.064Z,2.20
2018-12-23T08:53:33.254Z,2.07
2018-12-23T08:56:01.491Z,1.57
2018-12-23T08:58:29.422Z,1.73
2018-12-23T09:00:57.619Z,1.50
2018-12-23T09:03:25.863Z,1.63
2018-12-23T09:05:54.124Z,2.93
2018-12-23T09:08:22.364Z,1.90
2018-12-23T09:10:50.633Z,8.07
2018-12-23T09:13:18.928Z,6.33
2018-12-23T09:15:47.157Z,3.37
2018-12-23T09:18:19.355Z,8.20
2018-12-23T09:20:45.410Z,5.13
2018-12-23T09:23:13.603Z,9.37
2018-12-23T09:25:41.857Z,7.43
2018-12-23T09:28:10.028Z,3.20
2018-12-23T09:30:38.209Z,2.90
2018-12-23T09:33:06.162Z,11.83
2018-12-23T09:35:34.397Z,2.63
2018-12-23T09:38:02.603Z,9.07
2018-12-23T09:40:30.835Z,6.17
2018-12-23T09:42:59.058Z,3.40
2018-12-23T09:45:27.237Z,2.60
2018-12-23T09:47:55.177Z,1.60
2018-12-23T09:50:23.403Z,2.43
2018-12-23T09:52:51.629Z,3.63
2018-12-23T09:55:19.851Z,2.70
2018-12-23T09:57:47.895Z,4.70
2018-12-23T10:00:16.125Z,3.23
2018-12-23T10:02:44.325Z,4.83
2018-12-23T10:05:12.594Z,7.17
2018-12-23T10:07:40.887Z,7.40
2018-12-23T10:10:08.924Z,8.60
2018-12-23T10:12:37.119Z,12.50
2018-12-23T10:15:05.878Z,6.87
2018-12-23T10:17:34.139Z,2.07
2018-12-23T10:20:02.062Z,2.50
2018-12-23T10:22:30.014Z,1.87
2018-12-23T10:24:58.657Z,2.13
2018-12-23T10:27:26.898Z,2.37
2018-12-23T10:29:55.191Z,2.27
2018-12-23T10:32:23.622Z,2.90
2018-12-23T10:34:51.737Z,2.27
2018-12-23T10:37:19.754Z,2.60
2018-12-23T10:39:48.042Z,1.67
2018-12-23T10:42:16.230Z,2.27
2018-12-23T10:44:44.556Z,2.60
2018-12-23T10:47:12.797Z,1.87
2018-12-23T10:49:41.040Z,3.07
2018-12-23T10:52:09.237Z,2.70
2018-12-23T10:54:37.424Z,3.23
2018-12-23T10:57:05.640Z,3.90
2018-12-23T10:59:33.907Z,2.37
2018-12-23T11:02:02.162Z,3.30
2018-12-23T11:04:30.418Z,2.57
2018-12-23T11:06:58.656Z,2.30
2018-12-23T11:09:26.894Z,1.40
2018-12-23T11:11:55.147Z,1.27
2018-12-23T11:14:23.398Z,5.10
2018-12-23T11:16:51.676Z,7.50
2018-12-23T11:19:19.964Z,3.30
2018-12-23T11:21:48.183Z,4.13
2018-12-23T11:24:16.184Z,3.23
2018-12-23T11:26:44.407Z,3.10
2018-12-23T11:29:12.684Z,3.10
2018-12-23T11:31:40.931Z,2.00
2018-12-23T11:34:09.114Z,3.27
2018-12-23T11:36:37.399Z,2.07
2018-12-23T11:39:07.640Z,1.90
2018-12-23T11:41:35.889Z,2.20
2018-12-23T11:44:04.139Z,4.53
2018-12-23T11:46:32.468Z,2.10
2018-12-23T11:49:00.642Z,9.30
2018-12-23T11:51:28.866Z,5.30
2018-12-23T11:53:57.091Z,1.43
2018-12-23T11:56:25.342Z,1.80
2018-12-23T11:58:53.529Z,2.10
2018-12-23T12:01:21.811Z,2.40
2018-12-23T12:03:50.177Z,1.97
2018-12-23T12:06:18.516Z,2.23
2018-12-23T12:08:46.712Z,3.07
2018-12-23T12:11:16.027Z,1.43
2018-12-23T12:13:44.321Z,2.67
2018-12-23T12:23:42.493Z,1.83
2018-12-23T12:29:38.266Z,1.53
2018-12-23T12:32:26.521Z,1.03
2018-12-23T12:37:48.712Z,1.50
2018-12-23T12:40:36.999Z,0.97
2018-12-23T12:43:25.263Z,1.17
2018-12-23T12:46:13.559Z,2.47
2018-12-23T12:49:01.872Z,1.77
2018-12-23T12:51:50.135Z,1.20
2018-12-23T12:57:34.586Z,1.90
2018-12-23T13:03:17.228Z,1.30
2018-12-23T13:06:05.001Z,1.60
2018-12-23T13:09:00.314Z,1.57
2018-12-23T13:11:42.801Z,1.20
2018-12-23T13:14:31.073Z,0.90
2018-12-23T13:17:12.173Z,1.10
2018-12-23T13:19:52.862Z,1.50
2018-12-23T13:25:16.484Z,1.43
2018-12-23T13:27:57.413Z,1.60
2018-12-23T13:36:18.799Z,2.40
2018-12-23T13:39:09.135Z,3.87
2018-12-23T13:42:15.797Z,3.03
2018-12-23T13:45:04.050Z,3.00
2018-12-23T13:48:11.690Z,2.03
2018-12-23T13:51:19.311Z,1.70
2018-12-23T13:54:27.065Z,2.90
2018-12-23T14:00:41.413Z,1.83
2018-12-23T14:03:48.888Z,1.57
2018-12-23T14:06:56.576Z,2.07
2018-12-23T14:09:44.457Z,1.83
2018-12-23T14:15:32.428Z,2.20
2018-12-23T14:18:01.566Z,1.40
2018-12-23T14:20:49.875Z,1.40
2018-12-23T14:23:38.497Z,3.37
2018-12-23T14:26:26.746Z,2.37
2018-12-23T14:29:14.532Z,2.50
2018-12-23T14:32:02.832Z,1.30
2018-12-23T14:34:50.663Z,1.43
2018-12-23T14:37:38.929Z,1.50
2018-12-23T14:40:27.236Z,2.10
2018-12-23T14:43:15.658Z,2.20
2018-12-23T14:48:58.440Z,1.40
2018-12-23T14:51:46.721Z,2.20
2018-12-23T14:54:35.057Z,1.90
2018-12-23T14:57:23.348Z,3.70
2018-12-23T15:00:11.706Z,4.90
2018-12-23T15:02:59.575Z,4.77
2018-12-23T15:05:47.332Z,5.03
2018-12-23T15:08:35.909Z,8.17
2018-12-23T15:11:24.224Z,9.33
2018-12-23T15:14:12.479Z,13.17
2018-12-23T15:16:53.553Z,11.93
2018-12-23T15:19:34.488Z,12.90
2018-12-23T15:22:15.786Z,11.00
2018-12-23T15:24:56.572Z,8.93
2018-12-23T15:27:37.398Z,8.97
2018-12-23T15:30:18.774Z,8.53
2018-12-23T15:32:59.816Z,9.33
2018-12-23T15:35:40.814Z,7.37
2018-12-23T15:41:18.285Z,10.00
2018-12-23T15:44:06.543Z,8.43
2018-12-23T15:46:54.852Z,6.93
2018-12-23T15:49:43.097Z,11.10
2018-12-23T15:52:31.390Z,9.80
2018-12-23T15:55:19.651Z,9.10
2018-12-23T15:58:09.810Z,11.10
2018-12-23T16:00:57.932Z,7.40
2018-12-23T16:03:45.962Z,7.63
2018-12-23T16:06:34.221Z,7.10
2018-12-23T16:09:22.498Z,7.73
2018-12-23T16:12:10.772Z,8.00
2018-12-23T16:14:59.089Z,14.70
2018-12-23T16:17:47.362Z,13.43
2018-12-23T16:20:36.689Z,10.37
2018-12-23T16:23:06.664Z,18.10
2018-12-23T16:29:02.360Z,10.00
2018-12-23T16:31:50.692Z,9.10
2018-12-23T16:34:39.062Z,7.73
2018-12-23T16:37:27.352Z,6.10
2018-12-23T16:40:15.145Z,8.67
2018-12-23T16:43:03.545Z,5.80
2018-12-23T16:45:51.841Z,6.17
2018-12-23T16:48:40.221Z,7.00
2018-12-23T16:51:28.482Z,9.00
2018-12-23T16:54:16.858Z,10.13
2018-12-23T16:57:05.119Z,7.20
2018-12-23T16:59:53.489Z,6.83
2018-12-23T17:02:41.890Z,4.40
2018-12-23T17:05:30.244Z,5.80
2018-12-23T17:08:18.492Z,8.40
2018-12-23T17:11:06.290Z,6.30
2018-12-23T17:13:54.558Z,3.03
2018-12-23T17:16:36.082Z,4.20
2018-12-23T17:19:17.180Z,3.23
2018-12-23T17:21:46.308Z,4.33
2018-12-23T17:24:34.536Z,4.13
2018-12-23T17:27:22.802Z,4.67
2018-12-23T17:30:11.119Z,6.03
2018-12-23T17:32:59.403Z,4.40
2018-12-23T17:35:47.677Z,2.50
2018-12-23T17:38:35.452Z,3.00
2018-12-23T17:41:23.257Z,3.00
2018-12-23T17:44:11.039Z,4.00
2018-12-23T17:46:59.321Z,2.50
2018-12-23T17:49:47.574Z,2.00
2018-12-23T17:55:43.232Z,1.50
2018-12-23T17:58:31.477Z,1.80
2018-12-23T18:01:19.918Z,3.60
2018-12-23T18:04:08.194Z,0.90
2018-12-23T18:07:03.763Z,2.10
2018-12-23T18:09:46.615Z,2.77
2018-12-23T18:12:35.151Z,1.70
2018-12-23T18:15:04.423Z,2.10
2018-12-23T18:17:45.069Z,1.50
2018-12-23T18:20:26.046Z,1.13
2018-12-23T18:25:49.309Z,1.43
2018-12-23T18:28:18.412Z,0.97
2018-12-23T18:31:06.714Z,1.40
2018-12-23T18:33:55.019Z,2.67
2018-12-23T18:36:42.802Z,1.20
2018-12-23T18:39:30.587Z,1.63
2018-12-23T18:42:18.869Z,4.33
2018-12-23T18:45:07.471Z,2.57
2018-12-23T18:47:56.124Z,1.67
2018-12-23T18:50:44.732Z,1.77
2018-12-23T18:53:33.353Z,1.33
2018-12-23T18:56:25.871Z,1.00
2018-12-23T18:59:14.576Z,1.50
2018-12-23T19:05:00.956Z,3.20
2018-12-23T19:07:50.840Z,0.60
2018-12-23T19:10:58.293Z,1.10
2018-12-23T19:14:05.792Z,0.50
2018-12-23T19:16:46.830Z,0.70
2018-12-23T19:19:27.930Z,1.10
2018-12-23T19:22:09.067Z,1.20
2018-12-23T19:24:49.966Z,0.57
2018-12-23T19:27:31.142Z,0.80
2018-12-23T19:33:25.388Z,0.80
2018-12-23T19:39:04.388Z,0.50
2018-12-23T19:41:45.379Z,0.90
2018-12-23T19:44:26.467Z,0.70
2018-12-23T19:47:07.441Z,0.60
2018-12-23T19:59:02.159Z,0.70
2018-12-23T20:01:43.267Z,0.60
2018-12-23T20:04:24.425Z,0.70
2018-12-23T20:10:03.223Z,0.60
2018-12-23T20:12:44.015Z,0.50
2018-12-23T20:15:25.255Z,0.50
2018-12-23T20:18:06.817Z,0.50
2018-12-23T20:27:25.904Z,0.60
2018-12-23T20:30:33.351Z,0.50
2018-12-23T20:33:40.828Z,0.60
2018-12-23T20:36:35.728Z,0.60
2018-12-23T20:42:45.136Z,0.80
2018-12-23T20:45:52.590Z,0.53
2018-12-23T20:49:00.036Z,1.00
2018-12-23T20:52:07.524Z,0.60
2018-12-23T20:54:55.288Z,0.50
2018-12-23T20:58:02.770Z,0.40
2018-12-23T21:01:10.202Z,0.50
2018-12-23T21:04:17.650Z,0.63
2018-12-23T21:07:25.125Z,0.50
2018-12-23T21:10:32.558Z,0.50
2018-12-23T21:13:40.042Z,0.50
2018-12-23T21:16:21.484Z,0.70
2018-12-23T21:19:18.961Z,1.20
2018-12-23T21:22:26.507Z,0.50
2018-12-23T21:25:14.432Z,0.90
2018-12-23T21:28:22.019Z,0.50
2018-12-23T21:31:09.811Z,0.50
2018-12-23T21:34:11.184Z,0.50
2018-12-23T21:37:18.961Z,0.40
2018-12-23T21:40:26.405Z,0.50
2018-12-23T21:43:33.834Z,0.40
2018-12-23T21:46:21.700Z,0.40
2018-12-23T21:49:29.175Z,0.40
2018-12-23T21:52:39.838Z,0.40
2018-12-23T21:55:26.132Z,0.40
2018-12-23T21:58:33.570Z,0.87
2018-12-23T22:01:41.070Z,0.70
2018-12-23T22:04:28.881Z,0.50
2018-12-23T22:07:36.341Z,0.40
2018-12-23T22:10:29.591Z,0.50
2018-12-23T22:13:40.115Z,0.60
2018-12-23T22:16:21.505Z,0.60
2018-12-23T22:22:15.570Z,0.50
2018-12-23T22:24:56.829Z,0.40
2018-12-23T22:30:36.727Z,0.50
2018-12-23T22:36:30.485Z,0.50
2018-12-23T22:42:24.418Z,0.50
2018-12-23T22:45:05.192Z,0.50
2018-12-23T22:47:34.663Z,0.40
2018-12-23T22:50:23.143Z,0.60
2018-12-23T22:53:11.718Z,0.70
2018-12-23T22:56:00.344Z,0.50
2018-12-23T22:58:48.914Z,0.60
2018-12-23T23:01:40.069Z,0.50
2018-12-23T23:04:27.752Z,1.00
2018-12-23T23:07:16.405Z,0.50
2018-12-23T23:10:04.987Z,0.90
2018-12-23T23:12:34.168Z,0.60
2018-12-23T23:15:22.776Z,0.50
2018-12-23T23:18:11.106Z,0.40
2018-12-23T23:20:59.506Z,0.40
2018-12-23T23:23:48.053Z,0.50
2018-12-23T23:26:36.521Z,0.40
2018-12-23T23:29:24.833Z,0.50
2018-12-23T23:32:13.107Z,0.60
2018-12-23T23:35:01.474Z,0.47
2018-12-23T23:37:49.336Z,0.50
2018-12-23T23:40:37.185Z,0.50
2018-12-23T23:43:25.501Z,0.50
2018-12-23T23:46:13.812Z,0.40
2018-12-23T23:49:02.128Z,0.50
2018-12-23T23:54:38.541Z,0.40
2018-12-23T23:57:27.072Z,0.50
